Orlando, Florida
Current Conditions -  °F | °C
As of 8:53 AM on Monday 26 Jan 2015 (Local Time) from KORL Reporting Station
Clear Clear  
Wind Chill: 59°   Ceiling: Unl
Heat Index: 59°   Visibility: 10mi
Dew Point: 57°   Wind: 10mph
Humidity: 93%   Direction: 280°W
Pressure: 29.89"   Gusts: 21mph
Location:  28.54°N, 81.38°W
Report Text: KORL 261353Z 28009G18KT 10SM CLR 15/14 A2989 RMK AO2 SLP125 T01500139
Loading
Personal Weather Stations






























Interactive Weather Map New forecast layout! Learn more

10-Day Weather Forecast

Advertisements
Track Severe Weather on mobile